sensor_id;sensor_type;location;lat;lon;timestamp;P1;durP1;ratioP1;P2;durP2;ratioP2
67076;SDS011;53991;46.364;17.008;2022-07-06T00:01:59;7.65;;;6.88;;
67076;SDS011;53991;46.364;17.008;2022-07-06T00:05:00;10.15;;;7.40;;
67076;SDS011;53991;46.364;17.008;2022-07-06T00:08:02;7.28;;;6.68;;
67076;SDS011;53991;46.364;17.008;2022-07-06T00:11:05;6.80;;;6.20;;
67076;SDS011;53991;46.364;17.008;2022-07-06T00:14:07;6.82;;;6.22;;
67076;SDS011;53991;46.364;17.008;2022-07-06T00:17:09;9.05;;;6.57;;
67076;SDS011;53991;46.364;17.008;2022-07-06T00:20:11;7.38;;;6.68;;
67076;SDS011;53991;46.364;17.008;2022-07-06T00:23:13;7.60;;;5.65;;
67076;SDS011;53991;46.364;17.008;2022-07-06T00:29:17;7.55;;;6.75;;
67076;SDS011;53991;46.364;17.008;2022-07-06T00:32:19;10.30;;;8.63;;
67076;SDS011;53991;46.364;17.008;2022-07-06T00:35:21;6.88;;;6.20;;
67076;SDS011;53991;46.364;17.008;2022-07-06T00:38:24;9.15;;;6.78;;
67076;SDS011;53991;46.364;17.008;2022-07-06T00:41:26;17.70;;;8.23;;
67076;SDS011;53991;46.364;17.008;2022-07-06T00:44:28;10.18;;;8.60;;
67076;SDS011;53991;46.364;17.008;2022-07-06T00:47:30;8.65;;;7.75;;
67076;SDS011;53991;46.364;17.008;2022-07-06T00:50:32;9.00;;;7.97;;
67076;SDS011;53991;46.364;17.008;2022-07-06T00:53:35;8.32;;;7.43;;
67076;SDS011;53991;46.364;17.008;2022-07-06T00:59:39;8.27;;;7.40;;
67076;SDS011;53991;46.364;17.008;2022-07-06T01:02:41;11.13;;;8.70;;
67076;SDS011;53991;46.364;17.008;2022-07-06T01:05:44;10.32;;;8.05;;
67076;SDS011;53991;46.364;17.008;2022-07-06T01:08:46;9.82;;;9.02;;
67076;SDS011;53991;46.364;17.008;2022-07-06T01:14:50;9.65;;;8.35;;
67076;SDS011;53991;46.364;17.008;2022-07-06T01:17:52;11.63;;;7.88;;
67076;SDS011;53991;46.364;17.008;2022-07-06T01:21:05;9.15;;;8.02;;
67076;SDS011;53991;46.364;17.008;2022-07-06T01:24:08;10.00;;;7.95;;
67076;SDS011;53991;46.364;17.008;2022-07-06T01:27:10;8.80;;;7.80;;
67076;SDS011;53991;46.364;17.008;2022-07-06T01:30:13;9.57;;;8.43;;
67076;SDS011;53991;46.364;17.008;2022-07-06T01:33:16;8.70;;;7.80;;
67076;SDS011;53991;46.364;17.008;2022-07-06T01:36:18;9.32;;;8.10;;
67076;SDS011;53991;46.364;17.008;2022-07-06T01:39:20;9.05;;;8.02;;
67076;SDS011;53991;46.364;17.008;2022-07-06T01:42:22;8.85;;;8.05;;
67076;SDS011;53991;46.364;17.008;2022-07-06T01:45:24;8.25;;;7.28;;
67076;SDS011;53991;46.364;17.008;2022-07-06T01:48:26;9.18;;;8.23;;
67076;SDS011;53991;46.364;17.008;2022-07-06T01:51:28;11.68;;;8.27;;
67076;SDS011;53991;46.364;17.008;2022-07-06T01:54:30;16.70;;;8.32;;
67076;SDS011;53991;46.364;17.008;2022-07-06T01:57:32;14.73;;;8.52;;
67076;SDS011;53991;46.364;17.008;2022-07-06T02:00:34;10.77;;;7.72;;
67076;SDS011;53991;46.364;17.008;2022-07-06T02:03:36;8.70;;;7.90;;
67076;SDS011;53991;46.364;17.008;2022-07-06T02:06:39;10.85;;;9.43;;
67076;SDS011;53991;46.364;17.008;2022-07-06T02:09:40;14.93;;;8.73;;
67076;SDS011;53991;46.364;17.008;2022-07-06T02:12:43;9.98;;;7.10;;
67076;SDS011;53991;46.364;17.008;2022-07-06T02:15:45;15.48;;;7.93;;
67076;SDS011;53991;46.364;17.008;2022-07-06T02:18:47;11.65;;;8.57;;
67076;SDS011;53991;46.364;17.008;2022-07-06T02:21:49;9.10;;;8.15;;
67076;SDS011;53991;46.364;17.008;2022-07-06T02:24:50;10.48;;;8.57;;
67076;SDS011;53991;46.364;17.008;2022-07-06T02:27:52;20.83;;;8.88;;
67076;SDS011;53991;46.364;17.008;2022-07-06T02:30:54;15.80;;;8.90;;
67076;SDS011;53991;46.364;17.008;2022-07-06T02:33:56;10.05;;;9.05;;
67076;SDS011;53991;46.364;17.008;2022-07-06T02:36:58;13.18;;;8.80;;
67076;SDS011;53991;46.364;17.008;2022-07-06T02:40:00;9.90;;;7.72;;
67076;SDS011;53991;46.364;17.008;2022-07-06T02:43:02;14.57;;;8.63;;
67076;SDS011;53991;46.364;17.008;2022-07-06T02:46:04;17.77;;;8.20;;
67076;SDS011;53991;46.364;17.008;2022-07-06T02:52:08;17.23;;;8.82;;
67076;SDS011;53991;46.364;17.008;2022-07-06T02:55:10;10.15;;;8.63;;
67076;SDS011;53991;46.364;17.008;2022-07-06T02:58:12;16.90;;;9.13;;
67076;SDS011;53991;46.364;17.008;2022-07-06T03:01:14;13.07;;;9.20;;
67076;SDS011;53991;46.364;17.008;2022-07-06T03:04:16;12.82;;;8.98;;
67076;SDS011;53991;46.364;17.008;2022-07-06T03:07:18;13.25;;;8.82;;
67076;SDS011;53991;46.364;17.008;2022-07-06T03:10:20;9.40;;;8.32;;
67076;SDS011;53991;46.364;17.008;2022-07-06T03:13:22;13.80;;;8.98;;
67076;SDS011;53991;46.364;17.008;2022-07-06T03:16:24;10.70;;;8.10;;
67076;SDS011;53991;46.364;17.008;2022-07-06T03:19:26;10.52;;;9.52;;
67076;SDS011;53991;46.364;17.008;2022-07-06T03:22:28;11.52;;;8.45;;
67076;SDS011;53991;46.364;17.008;2022-07-06T03:25:30;10.65;;;8.80;;
67076;SDS011;53991;46.364;17.008;2022-07-06T03:28:31;10.70;;;7.95;;
67076;SDS011;53991;46.364;17.008;2022-07-06T03:31:33;11.43;;;9.00;;
67076;SDS011;53991;46.364;17.008;2022-07-06T03:34:35;9.70;;;8.10;;
67076;SDS011;53991;46.364;17.008;2022-07-06T03:37:37;22.25;;;9.13;;
67076;SDS011;53991;46.364;17.008;2022-07-06T03:40:39;10.73;;;9.00;;
67076;SDS011;53991;46.364;17.008;2022-07-06T03:43:41;12.48;;;9.30;;
67076;SDS011;53991;46.364;17.008;2022-07-06T03:46:43;9.90;;;8.85;;
67076;SDS011;53991;46.364;17.008;2022-07-06T03:49:45;12.95;;;10.90;;
67076;SDS011;53991;46.364;17.008;2022-07-06T03:52:47;10.98;;;9.15;;
67076;SDS011;53991;46.364;17.008;2022-07-06T03:55:49;12.40;;;8.95;;
67076;SDS011;53991;46.364;17.008;2022-07-06T03:58:51;13.10;;;8.75;;
67076;SDS011;53991;46.364;17.008;2022-07-06T04:01:53;11.60;;;8.65;;
67076;SDS011;53991;46.364;17.008;2022-07-06T04:04:55;9.32;;;8.23;;
67076;SDS011;53991;46.364;17.008;2022-07-06T04:07:57;10.75;;;9.48;;
67076;SDS011;53991;46.364;17.008;2022-07-06T04:10:59;11.05;;;9.10;;
67076;SDS011;53991;46.364;17.008;2022-07-06T04:14:01;10.02;;;8.75;;
67076;SDS011;53991;46.364;17.008;2022-07-06T04:17:03;11.32;;;10.20;;
67076;SDS011;53991;46.364;17.008;2022-07-06T04:20:05;10.60;;;9.57;;
67076;SDS011;53991;46.364;17.008;2022-07-06T04:23:07;10.25;;;9.35;;
67076;SDS011;53991;46.364;17.008;2022-07-06T04:26:09;10.25;;;9.27;;
67076;SDS011;53991;46.364;17.008;2022-07-06T04:29:11;12.43;;;10.57;;
67076;SDS011;53991;46.364;17.008;2022-07-06T04:32:13;11.00;;;9.88;;
67076;SDS011;53991;46.364;17.008;2022-07-06T04:35:15;10.32;;;7.32;;
67076;SDS011;53991;46.364;17.008;2022-07-06T04:38:17;7.40;;;6.40;;
67076;SDS011;53991;46.364;17.008;2022-07-06T04:44:21;8.38;;;6.25;;
67076;SDS011;53991;46.364;17.008;2022-07-06T04:47:23;6.93;;;6.25;;
67076;SDS011;53991;46.364;17.008;2022-07-06T04:50:25;7.28;;;6.15;;
67076;SDS011;53991;46.364;17.008;2022-07-06T04:53:27;6.40;;;5.47;;
67076;SDS011;53991;46.364;17.008;2022-07-06T04:56:29;6.22;;;5.57;;
67076;SDS011;53991;46.364;17.008;2022-07-06T04:59:31;6.53;;;6.00;;
67076;SDS011;53991;46.364;17.008;2022-07-06T05:02:33;6.72;;;5.57;;
67076;SDS011;53991;46.364;17.008;2022-07-06T05:05:35;7.22;;;5.25;;
67076;SDS011;53991;46.364;17.008;2022-07-06T05:08:37;6.05;;;5.32;;
67076;SDS011;53991;46.364;17.008;2022-07-06T05:11:39;5.03;;;4.53;;
67076;SDS011;53991;46.364;17.008;2022-07-06T05:14:41;10.10;;;5.85;;
67076;SDS011;53991;46.364;17.008;2022-07-06T05:17:43;6.30;;;4.60;;
67076;SDS011;53991;46.364;17.008;2022-07-06T05:20:45;11.43;;;5.05;;
67076;SDS011;53991;46.364;17.008;2022-07-06T05:23:47;4.68;;;4.13;;
67076;SDS011;53991;46.364;17.008;2022-07-06T05:26:49;4.53;;;3.72;;
67076;SDS011;53991;46.364;17.008;2022-07-06T05:29:51;5.65;;;4.60;;
67076;SDS011;53991;46.364;17.008;2022-07-06T05:32:53;5.32;;;4.53;;
67076;SDS011;53991;46.364;17.008;2022-07-06T05:35:55;5.38;;;3.67;;
67076;SDS011;53991;46.364;17.008;2022-07-06T05:38:57;4.63;;;4.30;;
67076;SDS011;53991;46.364;17.008;2022-07-06T05:41:58;4.78;;;4.38;;
67076;SDS011;53991;46.364;17.008;2022-07-06T05:45:00;6.30;;;4.80;;
67076;SDS011;53991;46.364;17.008;2022-07-06T05:48:02;4.35;;;3.95;;
67076;SDS011;53991;46.364;17.008;2022-07-06T05:51:05;5.45;;;4.65;;
67076;SDS011;53991;46.364;17.008;2022-07-06T05:54:07;4.68;;;4.00;;
67076;SDS011;53991;46.364;17.008;2022-07-06T05:57:09;4.22;;;3.83;;
67076;SDS011;53991;46.364;17.008;2022-07-06T06:00:11;5.47;;;3.83;;
67076;SDS011;53991;46.364;17.008;2022-07-06T06:03:13;5.28;;;3.88;;
67076;SDS011;53991;46.364;17.008;2022-07-06T06:06:15;6.07;;;4.65;;
67076;SDS011;53991;46.364;17.008;2022-07-06T06:09:17;4.53;;;3.92;;
67076;SDS011;53991;46.364;17.008;2022-07-06T06:12:19;3.80;;;3.50;;
67076;SDS011;53991;46.364;17.008;2022-07-06T06:15:21;4.53;;;3.60;;
67076;SDS011;53991;46.364;17.008;2022-07-06T06:18:23;3.67;;;3.30;;
67076;SDS011;53991;46.364;17.008;2022-07-06T06:21:25;3.70;;;3.17;;
67076;SDS011;53991;46.364;17.008;2022-07-06T06:27:29;5.75;;;3.35;;
67076;SDS011;53991;46.364;17.008;2022-07-06T06:30:31;5.28;;;3.63;;
67076;SDS011;53991;46.364;17.008;2022-07-06T06:33:34;3.67;;;3.00;;
67076;SDS011;53991;46.364;17.008;2022-07-06T06:39:37;4.88;;;3.30;;
67076;SDS011;53991;46.364;17.008;2022-07-06T06:45:41;6.95;;;2.80;;
67076;SDS011;53991;46.364;17.008;2022-07-06T06:51:45;7.05;;;3.30;;
67076;SDS011;53991;46.364;17.008;2022-07-06T06:57:49;3.08;;;2.08;;
67076;SDS011;53991;46.364;17.008;2022-07-06T07:03:52;3.45;;;1.80;;
67076;SDS011;53991;46.364;17.008;2022-07-06T07:06:55;2.55;;;1.70;;
67076;SDS011;53991;46.364;17.008;2022-07-06T07:10:00;3.85;;;1.90;;
67076;SDS011;53991;46.364;17.008;2022-07-06T07:16:04;4.97;;;2.38;;
67076;SDS011;53991;46.364;17.008;2022-07-06T07:19:06;2.53;;;1.77;;
67076;SDS011;53991;46.364;17.008;2022-07-06T07:25:10;2.03;;;1.85;;
67076;SDS011;53991;46.364;17.008;2022-07-06T07:31:14;3.03;;;1.88;;
67076;SDS011;53991;46.364;17.008;2022-07-06T07:37:18;4.53;;;2.10;;
67076;SDS011;53991;46.364;17.008;2022-07-06T07:40:20;2.88;;;2.55;;
67076;SDS011;53991;46.364;17.008;2022-07-06T07:43:22;2.53;;;2.28;;
67076;SDS011;53991;46.364;17.008;2022-07-06T07:46:24;5.22;;;1.95;;
67076;SDS011;53991;46.364;17.008;2022-07-06T07:49:26;4.57;;;2.58;;
67076;SDS011;53991;46.364;17.008;2022-07-06T07:52:27;4.53;;;2.35;;
67076;SDS011;53991;46.364;17.008;2022-07-06T07:55:29;3.20;;;2.05;;
67076;SDS011;53991;46.364;17.008;2022-07-06T07:58:47;3.85;;;2.40;;
67076;SDS011;53991;46.364;17.008;2022-07-06T08:01:49;2.45;;;1.95;;
67076;SDS011;53991;46.364;17.008;2022-07-06T08:04:51;2.53;;;2.33;;
67076;SDS011;53991;46.364;17.008;2022-07-06T08:10:55;3.13;;;2.03;;
67076;SDS011;53991;46.364;17.008;2022-07-06T08:14:17;1.92;;;1.80;;
67076;SDS011;53991;46.364;17.008;2022-07-06T08:20:21;3.90;;;1.87;;
67076;SDS011;53991;46.364;17.008;2022-07-06T08:23:23;3.67;;;1.77;;
67076;SDS011;53991;46.364;17.008;2022-07-06T08:26:25;3.33;;;1.85;;
67076;SDS011;53991;46.364;17.008;2022-07-06T08:29:27;2.53;;;1.92;;
67076;SDS011;53991;46.364;17.008;2022-07-06T08:35:51;2.17;;;1.95;;
67076;SDS011;53991;46.364;17.008;2022-07-06T08:41:56;3.47;;;2.38;;
67076;SDS011;53991;46.364;17.008;2022-07-06T08:45:00;7.22;;;1.70;;
67076;SDS011;53991;46.364;17.008;2022-07-06T08:48:07;2.53;;;1.88;;
67076;SDS011;53991;46.364;17.008;2022-07-06T08:51:11;3.40;;;2.00;;
67076;SDS011;53991;46.364;17.008;2022-07-06T08:54:14;2.17;;;1.90;;
67076;SDS011;53991;46.364;17.008;2022-07-06T08:57:17;2.00;;;1.73;;
67076;SDS011;53991;46.364;17.008;2022-07-06T09:03:21;3.00;;;1.70;;
67076;SDS011;53991;46.364;17.008;2022-07-06T09:06:24;4.35;;;1.95;;
67076;SDS011;53991;46.364;17.008;2022-07-06T09:09:26;3.70;;;2.00;;
67076;SDS011;53991;46.364;17.008;2022-07-06T09:12:30;2.17;;;1.88;;
67076;SDS011;53991;46.364;17.008;2022-07-06T09:18:39;3.03;;;2.03;;
67076;SDS011;53991;46.364;17.008;2022-07-06T09:21:41;2.03;;;1.80;;
67076;SDS011;53991;46.364;17.008;2022-07-06T09:24:44;4.85;;;2.67;;
67076;SDS011;53991;46.364;17.008;2022-07-06T09:27:46;3.45;;;2.35;;
67076;SDS011;53991;46.364;17.008;2022-07-06T09:30:49;3.53;;;2.10;;
67076;SDS011;53991;46.364;17.008;2022-07-06T09:33:56;3.42;;;2.20;;
67076;SDS011;53991;46.364;17.008;2022-07-06T09:37:03;4.95;;;2.30;;
67076;SDS011;53991;46.364;17.008;2022-07-06T09:40:15;6.70;;;2.50;;
67076;SDS011;53991;46.364;17.008;2022-07-06T09:43:22;3.22;;;2.10;;
67076;SDS011;53991;46.364;17.008;2022-07-06T09:46:26;4.30;;;2.13;;
67076;SDS011;53991;46.364;17.008;2022-07-06T09:49:28;4.57;;;2.78;;
67076;SDS011;53991;46.364;17.008;2022-07-06T09:52:33;6.07;;;2.33;;
67076;SDS011;53991;46.364;17.008;2022-07-06T09:55:36;2.25;;;2.05;;
67076;SDS011;53991;46.364;17.008;2022-07-06T09:58:38;6.18;;;1.98;;
67076;SDS011;53991;46.364;17.008;2022-07-06T10:02:02;2.00;;;1.90;;
67076;SDS011;53991;46.364;17.008;2022-07-06T10:05:06;3.63;;;2.15;;
67076;SDS011;53991;46.364;17.008;2022-07-06T10:08:09;2.55;;;2.35;;
67076;SDS011;53991;46.364;17.008;2022-07-06T10:11:11;2.67;;;2.47;;
67076;SDS011;53991;46.364;17.008;2022-07-06T10:14:15;2.47;;;2.28;;
67076;SDS011;53991;46.364;17.008;2022-07-06T10:17:19;4.40;;;2.25;;
67076;SDS011;53991;46.364;17.008;2022-07-06T10:20:23;3.60;;;1.85;;
67076;SDS011;53991;46.364;17.008;2022-07-06T10:23:26;1.77;;;1.67;;
67076;SDS011;53991;46.364;17.008;2022-07-06T10:26:29;2.67;;;1.63;;
67076;SDS011;53991;46.364;17.008;2022-07-06T10:32:33;3.47;;;1.63;;
67076;SDS011;53991;46.364;17.008;2022-07-06T10:35:35;3.20;;;1.90;;
67076;SDS011;53991;46.364;17.008;2022-07-06T10:38:41;1.92;;;1.48;;
67076;SDS011;53991;46.364;17.008;2022-07-06T10:41:50;2.03;;;1.80;;
67076;SDS011;53991;46.364;17.008;2022-07-06T10:44:52;3.58;;;2.05;;
67076;SDS011;53991;46.364;17.008;2022-07-06T10:51:27;3.75;;;1.60;;
67076;SDS011;53991;46.364;17.008;2022-07-06T10:54:31;2.38;;;1.75;;
67076;SDS011;53991;46.364;17.008;2022-07-06T10:57:53;4.55;;;1.90;;
67076;SDS011;53991;46.364;17.008;2022-07-06T11:00:55;2.72;;;1.70;;
67076;SDS011;53991;46.364;17.008;2022-07-06T11:10:08;1.58;;;1.48;;
67076;SDS011;53991;46.364;17.008;2022-07-06T11:16:26;2.17;;;1.98;;
67076;SDS011;53991;46.364;17.008;2022-07-06T11:19:30;2.85;;;1.50;;
67076;SDS011;53991;46.364;17.008;2022-07-06T11:22:32;1.60;;;1.50;;
67076;SDS011;53991;46.364;17.008;2022-07-06T11:25:34;2.00;;;1.85;;
67076;SDS011;53991;46.364;17.008;2022-07-06T11:31:41;2.60;;;1.80;;
67076;SDS011;53991;46.364;17.008;2022-07-06T11:34:45;2.47;;;1.55;;
67076;SDS011;53991;46.364;17.008;2022-07-06T11:37:48;1.60;;;1.50;;
67076;SDS011;53991;46.364;17.008;2022-07-06T11:40:53;1.83;;;1.73;;
67076;SDS011;53991;46.364;17.008;2022-07-06T11:43:55;3.55;;;1.70;;
67076;SDS011;53991;46.364;17.008;2022-07-06T11:49:59;2.35;;;1.67;;
67076;SDS011;53991;46.364;17.008;2022-07-06T11:53:01;2.08;;;1.70;;
67076;SDS011;53991;46.364;17.008;2022-07-06T11:56:03;2.70;;;1.83;;
67076;SDS011;53991;46.364;17.008;2022-07-06T11:59:06;2.95;;;2.08;;
67076;SDS011;53991;46.364;17.008;2022-07-06T12:02:10;2.17;;;1.40;;
67076;SDS011;53991;46.364;17.008;2022-07-06T12:05:27;1.52;;;1.42;;
67076;SDS011;53991;46.364;17.008;2022-07-06T12:08:31;2.15;;;1.38;;
67076;SDS011;53991;46.364;17.008;2022-07-06T12:11:34;3.13;;;1.67;;
67076;SDS011;53991;46.364;17.008;2022-07-06T12:14:37;1.58;;;1.48;;
67076;SDS011;53991;46.364;17.008;2022-07-06T12:17:40;3.17;;;1.85;;
67076;SDS011;53991;46.364;17.008;2022-07-06T12:20:49;2.25;;;1.50;;
67076;SDS011;53991;46.364;17.008;2022-07-06T12:23:54;3.00;;;1.38;;
67076;SDS011;53991;46.364;17.008;2022-07-06T12:26:56;3.22;;;1.48;;
67076;SDS011;53991;46.364;17.008;2022-07-06T12:30:07;4.07;;;1.60;;
67076;SDS011;53991;46.364;17.008;2022-07-06T12:33:14;5.35;;;1.77;;
67076;SDS011;53991;46.364;17.008;2022-07-06T12:36:17;3.55;;;1.38;;
67076;SDS011;53991;46.364;17.008;2022-07-06T12:42:22;1.60;;;1.30;;
67076;SDS011;53991;46.364;17.008;2022-07-06T12:48:28;2.83;;;1.80;;
67076;SDS011;53991;46.364;17.008;2022-07-06T12:51:47;1.60;;;1.50;;
67076;SDS011;53991;46.364;17.008;2022-07-06T12:54:52;2.30;;;1.50;;
67076;SDS011;53991;46.364;17.008;2022-07-06T13:00:57;2.63;;;2.00;;
67076;SDS011;53991;46.364;17.008;2022-07-06T13:04:07;1.92;;;1.42;;
67076;SDS011;53991;46.364;17.008;2022-07-06T13:10:19;1.75;;;1.65;;
67076;SDS011;53991;46.364;17.008;2022-07-06T13:13:21;1.45;;;1.35;;
67076;SDS011;53991;46.364;17.008;2022-07-06T13:16:23;2.75;;;1.63;;
67076;SDS011;53991;46.364;17.008;2022-07-06T13:22:29;1.77;;;1.60;;
67076;SDS011;53991;46.364;17.008;2022-07-06T13:28:33;3.50;;;1.70;;
67076;SDS011;53991;46.364;17.008;2022-07-06T13:31:35;2.58;;;2.38;;
67076;SDS011;53991;46.364;17.008;2022-07-06T13:37:39;3.13;;;1.80;;
67076;SDS011;53991;46.364;17.008;2022-07-06T13:40:41;3.83;;;1.63;;
67076;SDS011;53991;46.364;17.008;2022-07-06T13:43:43;3.22;;;1.95;;
67076;SDS011;53991;46.364;17.008;2022-07-06T13:46:45;2.33;;;1.85;;
67076;SDS011;53991;46.364;17.008;2022-07-06T13:49:47;2.88;;;1.50;;
67076;SDS011;53991;46.364;17.008;2022-07-06T13:52:49;2.50;;;1.75;;
67076;SDS011;53991;46.364;17.008;2022-07-06T13:55:51;3.42;;;1.83;;
67076;SDS011;53991;46.364;17.008;2022-07-06T13:58:54;7.47;;;2.40;;
67076;SDS011;53991;46.364;17.008;2022-07-06T14:01:56;2.25;;;1.55;;
67076;SDS011;53991;46.364;17.008;2022-07-06T14:04:59;3.80;;;1.65;;
67076;SDS011;53991;46.364;17.008;2022-07-06T14:08:01;5.55;;;2.05;;
67076;SDS011;53991;46.364;17.008;2022-07-06T14:11:03;3.58;;;1.60;;
67076;SDS011;53991;46.364;17.008;2022-07-06T14:14:06;3.75;;;2.05;;
67076;SDS011;53991;46.364;17.008;2022-07-06T14:17:08;4.10;;;1.77;;
67076;SDS011;53991;46.364;17.008;2022-07-06T14:20:10;2.50;;;1.40;;
67076;SDS011;53991;46.364;17.008;2022-07-06T14:23:13;1.60;;;1.50;;
67076;SDS011;53991;46.364;17.008;2022-07-06T14:26:15;2.15;;;1.70;;
67076;SDS011;53991;46.364;17.008;2022-07-06T14:32:19;3.20;;;1.40;;
67076;SDS011;53991;46.364;17.008;2022-07-06T14:35:21;2.05;;;1.50;;
67076;SDS011;53991;46.364;17.008;2022-07-06T14:38:23;2.17;;;1.75;;
67076;SDS011;53991;46.364;17.008;2022-07-06T14:44:27;2.20;;;2.00;;
67076;SDS011;53991;46.364;17.008;2022-07-06T14:47:29;4.88;;;2.15;;
67076;SDS011;53991;46.364;17.008;2022-07-06T14:50:31;6.45;;;2.15;;
67076;SDS011;53991;46.364;17.008;2022-07-06T14:53:33;3.72;;;2.40;;
67076;SDS011;53991;46.364;17.008;2022-07-06T14:56:37;4.15;;;2.25;;
67076;SDS011;53991;46.364;17.008;2022-07-06T14:59:39;2.85;;;2.25;;
67076;SDS011;53991;46.364;17.008;2022-07-06T15:02:41;3.55;;;2.42;;
67076;SDS011;53991;46.364;17.008;2022-07-06T15:05:44;3.22;;;1.98;;
67076;SDS011;53991;46.364;17.008;2022-07-06T15:11:48;4.30;;;1.93;;
67076;SDS011;53991;46.364;17.008;2022-07-06T15:14:50;2.67;;;2.35;;
67076;SDS011;53991;46.364;17.008;2022-07-06T15:17:52;3.88;;;2.50;;
67076;SDS011;53991;46.364;17.008;2022-07-06T15:20:54;2.28;;;2.08;;
67076;SDS011;53991;46.364;17.008;2022-07-06T15:23:56;3.00;;;2.80;;
67076;SDS011;53991;46.364;17.008;2022-07-06T15:26:58;2.88;;;2.08;;
67076;SDS011;53991;46.364;17.008;2022-07-06T15:30:00;5.43;;;1.85;;
67076;SDS011;53991;46.364;17.008;2022-07-06T15:33:23;3.80;;;2.10;;
67076;SDS011;53991;46.364;17.008;2022-07-06T15:36:26;2.55;;;2.33;;
67076;SDS011;53991;46.364;17.008;2022-07-06T15:39:28;2.60;;;1.80;;
67076;SDS011;53991;46.364;17.008;2022-07-06T15:45:32;4.10;;;2.10;;
67076;SDS011;53991;46.364;17.008;2022-07-06T15:48:34;3.55;;;2.00;;
67076;SDS011;53991;46.364;17.008;2022-07-06T15:51:36;7.75;;;2.10;;
67076;SDS011;53991;46.364;17.008;2022-07-06T15:54:38;4.63;;;2.90;;
67076;SDS011;53991;46.364;17.008;2022-07-06T15:57:40;1.88;;;1.77;;
67076;SDS011;53991;46.364;17.008;2022-07-06T16:00:42;3.83;;;2.30;;
67076;SDS011;53991;46.364;17.008;2022-07-06T16:03:44;2.65;;;1.95;;
67076;SDS011;53991;46.364;17.008;2022-07-06T16:06:46;1.90;;;1.80;;
67076;SDS011;53991;46.364;17.008;2022-07-06T16:13:11;2.38;;;2.05;;
67076;SDS011;53991;46.364;17.008;2022-07-06T16:19:15;3.95;;;1.55;;
67076;SDS011;53991;46.364;17.008;2022-07-06T16:25:19;2.03;;;1.80;;
67076;SDS011;53991;46.364;17.008;2022-07-06T16:31:23;8.98;;;1.70;;
67076;SDS011;53991;46.364;17.008;2022-07-06T16:34:26;1.65;;;1.45;;
67076;SDS011;53991;46.364;17.008;2022-07-06T16:40:30;2.25;;;1.95;;
67076;SDS011;53991;46.364;17.008;2022-07-06T16:43:32;2.05;;;1.50;;
67076;SDS011;53991;46.364;17.008;2022-07-06T16:46:34;3.40;;;2.58;;
67076;SDS011;53991;46.364;17.008;2022-07-06T16:49:37;3.30;;;1.67;;
67076;SDS011;53991;46.364;17.008;2022-07-06T16:52:39;1.73;;;1.63;;
67076;SDS011;53991;46.364;17.008;2022-07-06T16:55:41;4.03;;;2.03;;
67076;SDS011;53991;46.364;17.008;2022-07-06T16:58:43;3.10;;;2.03;;
67076;SDS011;53991;46.364;17.008;2022-07-06T17:01:45;5.10;;;2.05;;
67076;SDS011;53991;46.364;17.008;2022-07-06T17:04:48;6.68;;;2.35;;
67076;SDS011;53991;46.364;17.008;2022-07-06T17:07:50;4.43;;;1.83;;
67076;SDS011;53991;46.364;17.008;2022-07-06T17:13:55;5.35;;;1.83;;
67076;SDS011;53991;46.364;17.008;2022-07-06T17:19:59;6.45;;;2.60;;
67076;SDS011;53991;46.364;17.008;2022-07-06T17:26:03;3.13;;;1.95;;
67076;SDS011;53991;46.364;17.008;2022-07-06T17:29:06;5.25;;;2.00;;
67076;SDS011;53991;46.364;17.008;2022-07-06T17:32:08;1.75;;;1.65;;
67076;SDS011;53991;46.364;17.008;2022-07-06T17:35:12;2.40;;;1.98;;
67076;SDS011;53991;46.364;17.008;2022-07-06T17:38:14;17.05;;;2.85;;
67076;SDS011;53991;46.364;17.008;2022-07-06T17:44:18;6.40;;;1.93;;
67076;SDS011;53991;46.364;17.008;2022-07-06T17:47:21;5.18;;;2.42;;
67076;SDS011;53991;46.364;17.008;2022-07-06T17:53:25;5.38;;;2.40;;
67076;SDS011;53991;46.364;17.008;2022-07-06T17:56:28;6.10;;;2.40;;
67076;SDS011;53991;46.364;17.008;2022-07-06T18:02:32;10.00;;;2.23;;
67076;SDS011;53991;46.364;17.008;2022-07-06T18:05:35;4.90;;;1.77;;
67076;SDS011;53991;46.364;17.008;2022-07-06T18:11:39;4.38;;;2.10;;
67076;SDS011;53991;46.364;17.008;2022-07-06T18:14:41;2.67;;;2.15;;
67076;SDS011;53991;46.364;17.008;2022-07-06T18:20:56;4.00;;;1.77;;
67076;SDS011;53991;46.364;17.008;2022-07-06T18:23:58;4.53;;;2.00;;
67076;SDS011;53991;46.364;17.008;2022-07-06T18:27:01;4.32;;;1.77;;
67076;SDS011;53991;46.364;17.008;2022-07-06T18:30:03;1.83;;;1.73;;
67076;SDS011;53991;46.364;17.008;2022-07-06T18:33:06;2.28;;;1.77;;
67076;SDS011;53991;46.364;17.008;2022-07-06T18:36:09;5.25;;;1.90;;
67076;SDS011;53991;46.364;17.008;2022-07-06T18:39:11;1.95;;;1.45;;
67076;SDS011;53991;46.364;17.008;2022-07-06T18:42:13;2.00;;;1.83;;
67076;SDS011;53991;46.364;17.008;2022-07-06T18:48:18;1.77;;;1.52;;
67076;SDS011;53991;46.364;17.008;2022-07-06T18:51:20;2.50;;;1.80;;
67076;SDS011;53991;46.364;17.008;2022-07-06T18:54:22;6.18;;;1.88;;
67076;SDS011;53991;46.364;17.008;2022-07-06T18:57:24;12.90;;;2.60;;
67076;SDS011;53991;46.364;17.008;2022-07-06T19:00:26;2.10;;;1.90;;
67076;SDS011;53991;46.364;17.008;2022-07-06T19:03:29;2.88;;;1.98;;
67076;SDS011;53991;46.364;17.008;2022-07-06T19:06:31;1.98;;;1.63;;
67076;SDS011;53991;46.364;17.008;2022-07-06T19:09:33;4.00;;;2.88;;
67076;SDS011;53991;46.364;17.008;2022-07-06T19:12:35;5.13;;;2.95;;
67076;SDS011;53991;46.364;17.008;2022-07-06T19:15:38;5.78;;;3.50;;
67076;SDS011;53991;46.364;17.008;2022-07-06T19:18:40;7.20;;;2.88;;
67076;SDS011;53991;46.364;17.008;2022-07-06T19:21:42;3.45;;;2.63;;
67076;SDS011;53991;46.364;17.008;2022-07-06T19:24:44;11.57;;;2.55;;
67076;SDS011;53991;46.364;17.008;2022-07-06T19:27:46;4.18;;;2.45;;
67076;SDS011;53991;46.364;17.008;2022-07-06T19:33:51;3.93;;;2.40;;
67076;SDS011;53991;46.364;17.008;2022-07-06T19:36:54;3.58;;;2.42;;
67076;SDS011;53991;46.364;17.008;2022-07-06T19:42:58;2.40;;;2.20;;
67076;SDS011;53991;46.364;17.008;2022-07-06T19:46:01;2.55;;;2.17;;
67076;SDS011;53991;46.364;17.008;2022-07-06T19:52:05;3.93;;;2.40;;
67076;SDS011;53991;46.364;17.008;2022-07-06T19:55:08;2.55;;;2.35;;
67076;SDS011;53991;46.364;17.008;2022-07-06T19:58:10;4.75;;;2.78;;
67076;SDS011;53991;46.364;17.008;2022-07-06T20:01:14;4.70;;;2.95;;
67076;SDS011;53991;46.364;17.008;2022-07-06T20:04:17;3.45;;;2.53;;
67076;SDS011;53991;46.364;17.008;2022-07-06T20:07:19;2.70;;;2.60;;
67076;SDS011;53991;46.364;17.008;2022-07-06T20:10:21;3.10;;;2.42;;
67076;SDS011;53991;46.364;17.008;2022-07-06T20:13:23;4.43;;;2.60;;
67076;SDS011;53991;46.364;17.008;2022-07-06T20:19:28;4.10;;;2.58;;
67076;SDS011;53991;46.364;17.008;2022-07-06T20:22:30;2.67;;;2.55;;
67076;SDS011;53991;46.364;17.008;2022-07-06T20:25:33;3.83;;;3.08;;
67076;SDS011;53991;46.364;17.008;2022-07-06T20:28:35;4.20;;;2.83;;
67076;SDS011;53991;46.364;17.008;2022-07-06T20:34:40;3.55;;;3.25;;
67076;SDS011;53991;46.364;17.008;2022-07-06T20:37:42;5.80;;;2.90;;
67076;SDS011;53991;46.364;17.008;2022-07-06T20:40:44;4.22;;;3.10;;
67076;SDS011;53991;46.364;17.008;2022-07-06T20:43:46;3.90;;;3.15;;
67076;SDS011;53991;46.364;17.008;2022-07-06T20:46:48;4.75;;;2.90;;
67076;SDS011;53991;46.364;17.008;2022-07-06T20:52:53;3.47;;;3.17;;
67076;SDS011;53991;46.364;17.008;2022-07-06T20:55:55;3.45;;;3.22;;
67076;SDS011;53991;46.364;17.008;2022-07-06T20:58:57;3.20;;;3.00;;
67076;SDS011;53991;46.364;17.008;2022-07-06T21:02:15;4.07;;;3.78;;
67076;SDS011;53991;46.364;17.008;2022-07-06T21:05:17;3.80;;;3.17;;